createdAt,value
2018-03-14T00:01:03.267Z,90.70
2018-03-14T00:03:31.729Z,90.80
2018-03-14T00:06:01.606Z,91.00
2018-03-14T00:08:30.685Z,91.00
2018-03-14T00:10:59.105Z,91.00
2018-03-14T00:13:28.144Z,91.20
2018-03-14T00:15:56.421Z,91.20
2018-03-14T00:18:28.420Z,91.40
2018-03-14T00:20:56.700Z,91.50
2018-03-14T00:23:24.977Z,91.60
2018-03-14T00:25:53.311Z,91.70
2018-03-14T00:28:21.672Z,91.80
2018-03-14T00:30:50.729Z,91.90
2018-03-14T00:33:19.220Z,91.80
2018-03-14T00:35:48.277Z,92.20
2018-03-14T00:38:16.587Z,92.10
2018-03-14T00:40:45.058Z,92.10
2018-03-14T00:43:13.818Z,92.30
2018-03-14T00:45:42.107Z,92.20
2018-03-14T00:48:10.616Z,92.20
2018-03-14T00:50:39.757Z,92.20
2018-03-14T00:53:08.119Z,92.20
2018-03-14T00:55:40.141Z,92.40
2018-03-14T00:58:08.426Z,92.10
2018-03-14T01:00:37.449Z,92.30
2018-03-14T01:03:05.897Z,92.30
2018-03-14T01:05:34.177Z,92.40
2018-03-14T01:08:03.806Z,92.70
2018-03-14T01:10:33.387Z,92.50
2018-03-14T01:13:01.677Z,92.40
2018-03-14T01:15:30.740Z,92.50
2018-03-14T01:17:59.107Z,92.40
2018-03-14T01:20:29.649Z,92.50
2018-03-14T01:22:57.922Z,92.60
2018-03-14T01:25:27.996Z,92.60
2018-03-14T01:27:56.297Z,92.60
2018-03-14T01:30:24.570Z,92.60
2018-03-14T01:32:53.075Z,92.60
2018-03-14T01:35:21.384Z,92.60
2018-03-14T01:37:50.431Z,92.70
2018-03-14T01:40:18.753Z,92.70
2018-03-14T01:42:47.030Z,92.50
2018-03-14T01:45:19.397Z,92.50
2018-03-14T01:47:47.678Z,92.50
2018-03-14T01:50:15.940Z,92.50
2018-03-14T01:52:44.248Z,92.60
2018-03-14T01:55:13.297Z,92.50
2018-03-14T01:57:43.431Z,92.50
2018-03-14T02:00:11.736Z,92.60
2018-03-14T02:02:40.774Z,92.40
2018-03-14T02:05:09.049Z,92.40
2018-03-14T02:07:37.419Z,92.40
2018-03-14T02:10:06.503Z,92.50
2018-03-14T02:12:34.767Z,92.40
2018-03-14T02:15:03.082Z,92.30
2018-03-14T02:17:32.891Z,92.40
2018-03-14T02:20:01.209Z,92.40
2018-03-14T02:22:31.774Z,92.40
2018-03-14T02:25:00.053Z,92.50
2018-03-14T02:27:28.333Z,92.60
2018-03-14T02:29:57.168Z,92.60
2018-03-14T02:32:25.442Z,92.60
2018-03-14T02:34:54.531Z,92.70
2018-03-14T02:37:22.841Z,92.70
2018-03-14T02:39:51.887Z,92.70
2018-03-14T02:42:20.160Z,92.80
2018-03-14T02:44:48.636Z,92.80
2018-03-14T02:47:17.813Z,92.90
2018-03-14T02:49:46.128Z,93.00
2018-03-14T02:52:14.614Z,93.10
2018-03-14T02:54:42.870Z,93.20
2018-03-14T02:57:11.134Z,93.20
2018-03-14T02:59:41.239Z,93.40
2018-03-14T03:02:09.511Z,93.70
2018-03-14T03:04:38.533Z,94.30
2018-03-14T03:07:07.146Z,94.20
2018-03-14T03:09:35.393Z,94.30
2018-03-14T03:12:03.749Z,94.70
2018-03-14T03:14:32.274Z,94.70
2018-03-14T03:17:00.532Z,95.10
2018-03-14T03:19:28.795Z,95.00
2018-03-14T03:21:57.529Z,95.00
2018-03-14T03:24:28.860Z,95.10
2018-03-14T03:26:57.112Z,95.20
2018-03-14T03:29:25.624Z,95.40
2018-03-14T03:31:53.877Z,95.60
2018-03-14T03:34:22.131Z,95.90
2018-03-14T03:36:51.410Z,95.80
2018-03-14T03:39:20.434Z,96.50
2018-03-14T03:41:48.699Z,96.50
2018-03-14T03:44:16.994Z,96.60
2018-03-14T03:46:45.354Z,96.80
2018-03-14T03:49:15.160Z,96.40
2018-03-14T03:51:44.222Z,96.40
2018-03-14T03:54:13.245Z,95.90
2018-03-14T03:56:42.287Z,96.10
2018-03-14T03:59:10.587Z,96.10
2018-03-14T04:01:42.795Z,95.70
2018-03-14T04:04:11.412Z,95.70
2018-03-14T04:06:39.673Z,95.60
2018-03-14T04:09:07.959Z,95.70
2018-03-14T04:11:36.841Z,95.80
2018-03-14T04:14:06.623Z,96.10
2018-03-14T04:16:35.644Z,96.30
2018-03-14T04:19:04.167Z,96.30
2018-03-14T04:21:32.479Z,96.20
2018-03-14T04:24:00.714Z,96.30
2018-03-14T04:26:30.311Z,96.50
2018-03-14T04:28:58.587Z,96.50
2018-03-14T04:31:26.843Z,96.50
2018-03-14T04:33:55.281Z,96.70
2018-03-14T04:36:24.318Z,96.60
2018-03-14T04:38:54.233Z,96.60
2018-03-14T04:41:22.687Z,96.60
2018-03-14T04:43:50.950Z,96.60
2018-03-14T04:46:19.983Z,96.80
2018-03-14T04:48:48.304Z,96.70
2018-03-14T04:51:18.681Z,96.50
2018-03-14T04:53:46.935Z,96.60
2018-03-14T04:56:15.367Z,96.60
2018-03-14T04:58:43.625Z,96.50
2018-03-14T05:01:11.898Z,96.50
2018-03-14T05:03:42.339Z,96.40
2018-03-14T05:06:10.623Z,96.70
2018-03-14T05:08:38.916Z,96.50
2018-03-14T05:11:07.981Z,96.40
2018-03-14T05:13:36.255Z,96.60
2018-03-14T05:16:04.712Z,96.40
2018-03-14T05:18:33.005Z,96.30
2018-03-14T05:21:01.282Z,96.30
2018-03-14T05:23:29.558Z,96.40
2018-03-14T05:25:57.952Z,96.30
2018-03-14T05:28:29.294Z,96.40
2018-03-14T05:30:57.551Z,96.30
2018-03-14T05:33:25.911Z,96.20
2018-03-14T05:35:54.167Z,96.10
2018-03-14T05:38:23.211Z,96.30
2018-03-14T05:40:51.836Z,96.30
2018-03-14T05:43:20.093Z,96.40
2018-03-14T05:45:48.394Z,96.40
2018-03-14T05:48:16.721Z,96.30
2018-03-14T05:50:45.019Z,96.30
2018-03-14T05:53:14.100Z,96.30
2018-03-14T05:55:42.593Z,96.50
2018-03-14T05:58:10.881Z,96.20
2018-03-14T06:00:39.149Z,96.20
2018-03-14T06:03:07.842Z,96.20
2018-03-14T06:05:38.246Z,96.20
2018-03-14T06:08:06.496Z,96.00
2018-03-14T06:10:34.922Z,96.00
2018-03-14T06:13:03.211Z,95.80
2018-03-14T06:15:31.489Z,95.70
2018-03-14T06:18:02.991Z,95.50
2018-03-14T06:20:31.252Z,95.70
2018-03-14T06:22:59.531Z,95.70
2018-03-14T06:25:28.058Z,95.70
2018-03-14T06:27:56.334Z,95.70
2018-03-14T06:30:25.855Z,95.90
2018-03-14T06:32:54.283Z,96.00
2018-03-14T06:35:22.558Z,95.60
2018-03-14T06:37:50.811Z,95.70
2018-03-14T06:40:19.129Z,95.40
2018-03-14T06:42:49.728Z,95.40
2018-03-14T06:45:17.986Z,95.40
2018-03-14T06:47:47.261Z,95.30
2018-03-14T06:50:15.634Z,95.30
2018-03-14T06:52:43.902Z,95.50
2018-03-14T06:55:13.191Z,95.50
2018-03-14T06:57:41.456Z,95.60
2018-03-14T07:00:21.747Z,95.50
2018-03-14T07:03:01.915Z,95.50
2018-03-14T07:05:45.482Z,95.50
2018-03-14T07:08:13.866Z,95.50
2018-03-14T07:10:42.197Z,95.50
2018-03-14T07:13:12.199Z,95.60
2018-03-14T07:15:40.560Z,95.60
2018-03-14T07:18:09.597Z,95.60
2018-03-14T07:20:39.259Z,95.10
2018-03-14T07:23:07.531Z,95.40
2018-03-14T07:25:35.825Z,95.40
2018-03-14T07:28:05.745Z,95.20
2018-03-14T07:30:34.007Z,95.20
2018-03-14T07:33:02.299Z,95.40
2018-03-14T07:35:30.622Z,95.30
2018-03-14T07:37:59.662Z,95.40
2018-03-14T07:40:28.116Z,95.40
2018-03-14T07:42:57.256Z,95.40
2018-03-14T07:45:25.543Z,95.60
2018-03-14T07:47:53.849Z,95.30
2018-03-14T07:50:23.109Z,95.10
2018-03-14T07:52:52.158Z,95.10
2018-03-14T07:55:21.243Z,95.20
2018-03-14T07:57:49.590Z,95.20
2018-03-14T08:00:18.622Z,94.90
2018-03-14T08:02:46.906Z,94.90
2018-03-14T08:05:16.901Z,95.00
2018-03-14T08:07:45.248Z,95.00
2018-03-14T08:10:15.443Z,95.20
2018-03-14T08:12:43.866Z,94.90
2018-03-14T08:15:12.911Z,94.70
2018-03-14T08:17:43.542Z,94.70
2018-03-14T08:20:12.034Z,94.60
2018-03-14T08:22:40.333Z,94.40
2018-03-14T08:25:10.106Z,94.50
2018-03-14T08:27:38.995Z,94.50
2018-03-14T08:30:08.598Z,94.60
2018-03-14T08:32:36.874Z,94.60
2018-03-14T08:35:05.166Z,94.60
2018-03-14T08:37:33.448Z,94.60
2018-03-14T08:40:01.713Z,94.70
2018-03-14T08:42:31.493Z,94.10
2018-03-14T08:44:59.816Z,94.50
2018-03-14T08:47:28.075Z,94.40
2018-03-14T08:49:56.610Z,94.70
2018-03-14T08:52:25.651Z,94.10
2018-03-14T08:54:54.051Z,94.10
2018-03-14T08:57:22.517Z,94.30
2018-03-14T08:59:50.821Z,94.30
2018-03-14T09:02:19.882Z,94.00
2018-03-14T09:04:48.223Z,94.00
2018-03-14T09:07:17.263Z,93.90
2018-03-14T09:09:45.593Z,93.80
2018-03-14T09:12:15.973Z,94.10
2018-03-14T09:14:44.245Z,94.10
2018-03-14T09:17:12.569Z,93.50
2018-03-14T09:19:43.972Z,93.50
2018-03-14T09:22:12.243Z,93.50
2018-03-14T09:24:40.523Z,93.50
2018-03-14T09:27:08.902Z,93.30
2018-03-14T09:29:37.181Z,93.30
2018-03-14T09:32:09.212Z,93.40
2018-03-14T09:34:37.475Z,93.60
2018-03-14T09:37:06.512Z,93.50
2018-03-14T09:39:35.391Z,93.50
2018-03-14T09:42:03.729Z,93.20
2018-03-14T09:44:34.300Z,93.10
2018-03-14T09:47:02.867Z,93.10
2018-03-14T09:49:31.126Z,93.00
2018-03-14T09:52:00.175Z,93.10
2018-03-14T09:54:28.745Z,93.10
2018-03-14T09:56:57.097Z,93.00
2018-03-14T09:59:25.387Z,92.90
2018-03-14T10:01:53.920Z,92.80
2018-03-14T10:04:22.969Z,92.50
2018-03-14T10:06:51.247Z,92.50
2018-03-14T10:09:22.264Z,92.50
2018-03-14T10:11:51.337Z,92.60
2018-03-14T10:14:21.511Z,92.50
2018-03-14T10:16:49.955Z,92.50
2018-03-14T10:19:18.273Z,92.30
2018-03-14T10:21:47.434Z,92.20
2018-03-14T10:24:15.710Z,92.50
2018-03-14T10:26:44.775Z,92.30
2018-03-14T10:29:13.037Z,92.20
2018-03-14T10:31:41.722Z,92.30
2018-03-14T10:34:12.697Z,92.10
2018-03-14T10:36:41.054Z,91.70
2018-03-14T10:39:09.794Z,91.60
2018-03-14T10:41:38.074Z,92.20
2018-03-14T10:44:06.359Z,91.90
2018-03-14T10:46:37.011Z,91.70
2018-03-14T10:49:05.279Z,91.80
2018-03-14T10:51:33.640Z,91.70
2018-03-14T10:54:02.034Z,91.60
2018-03-14T10:56:30.343Z,91.50
2018-03-14T10:59:01.824Z,91.60
2018-03-14T11:01:35.970Z,91.50
2018-03-14T11:04:04.339Z,91.70
2018-03-14T11:06:32.594Z,91.70
2018-03-14T11:09:02.328Z,91.40
2018-03-14T11:11:31.401Z,91.20
2018-03-14T11:14:00.924Z,91.00
2018-03-14T11:16:34.157Z,91.30
2018-03-14T11:19:02.413Z,91.10
2018-03-14T11:21:30.721Z,91.00
2018-03-14T11:24:02.911Z,90.00
2018-03-14T11:26:31.217Z,89.90
2018-03-14T11:28:59.511Z,90.10
2018-03-14T11:31:28.487Z,90.10
2018-03-14T11:33:56.874Z,89.10
2018-03-14T11:36:25.729Z,88.30
2018-03-14T11:38:55.318Z,89.30
2018-03-14T11:41:23.575Z,86.70
2018-03-14T11:43:52.621Z,86.60
2018-03-14T11:46:21.207Z,86.60
2018-03-14T11:48:51.768Z,86.50
2018-03-14T11:51:20.131Z,83.50
2018-03-14T11:53:49.613Z,86.80
2018-03-14T11:56:17.889Z,86.70
2018-03-14T11:58:46.178Z,87.30
2018-03-14T12:01:14.881Z,86.20
2018-03-14T12:03:43.148Z,86.80
2018-03-14T12:06:11.434Z,87.10
2018-03-14T12:08:40.132Z,87.20
2018-03-14T12:11:08.753Z,87.70
2018-03-14T12:13:40.142Z,87.70
2018-03-14T12:16:08.466Z,86.90
2018-03-14T12:18:38.157Z,86.80
2018-03-14T12:21:07.873Z,88.00
2018-03-14T12:23:37.143Z,86.90
2018-03-14T12:26:07.757Z,86.80
2018-03-14T12:28:36.007Z,86.00
2018-03-14T12:31:04.488Z,85.20
2018-03-14T12:33:32.772Z,85.30
2018-03-14T12:36:01.159Z,83.80
2018-03-14T12:38:30.411Z,86.00
2018-03-14T12:40:58.715Z,85.30
2018-03-14T12:43:27.000Z,82.70
2018-03-14T12:45:55.411Z,84.10
2018-03-14T12:48:23.709Z,83.60
2018-03-14T12:50:55.754Z,83.70
2018-03-14T12:53:24.292Z,83.40
2018-03-14T12:55:52.606Z,84.10
2018-03-14T12:58:21.637Z,80.70
2018-03-14T13:00:49.955Z,81.10
2018-03-14T13:03:19.512Z,79.80
2018-03-14T13:05:47.820Z,80.50
2018-03-14T13:08:17.200Z,78.70
2018-03-14T13:10:45.504Z,78.50
2018-03-14T13:13:13.888Z,78.80
2018-03-14T13:15:44.127Z,79.20
2018-03-14T13:18:12.433Z,81.10
2018-03-14T13:20:43.252Z,79.50
2018-03-14T13:23:11.783Z,80.40
2018-03-14T13:25:40.818Z,79.20
2018-03-14T13:28:10.646Z,79.10
2018-03-14T13:30:39.441Z,78.90
2018-03-14T13:33:07.809Z,79.90
2018-03-14T13:35:36.112Z,77.10
2018-03-14T13:38:05.767Z,76.10
2018-03-14T13:40:37.855Z,76.10
2018-03-14T13:43:06.218Z,72.80
2018-03-14T13:45:34.523Z,74.70
2018-03-14T13:48:02.811Z,73.10
2018-03-14T13:50:33.435Z,69.30
2018-03-14T13:53:01.764Z,69.10
2018-03-14T13:55:30.192Z,68.60
2018-03-14T13:57:59.706Z,72.70
2018-03-14T14:00:28.269Z,71.40
2018-03-14T14:02:58.908Z,69.90
2018-03-14T14:05:29.468Z,72.30
2018-03-14T14:07:58.524Z,72.30
2018-03-14T14:10:27.743Z,72.30
2018-03-14T14:12:57.055Z,72.90
2018-03-14T14:15:27.060Z,74.80
2018-03-14T14:17:55.377Z,74.70
2018-03-14T14:20:23.835Z,74.80
2018-03-14T14:22:54.836Z,71.60
2018-03-14T14:25:23.347Z,71.50
2018-03-14T14:27:55.764Z,69.80
2018-03-14T14:30:24.091Z,68.80
2018-03-14T14:32:52.364Z,69.90
2018-03-14T14:35:21.647Z,71.80
2018-03-14T14:37:49.921Z,72.70
2018-03-14T14:40:19.172Z,71.60
2018-03-14T14:42:47.359Z,74.20
2018-03-14T14:45:15.743Z,76.10
2018-03-14T14:47:44.071Z,77.10
2018-03-14T14:50:12.547Z,76.40
2018-03-14T14:52:41.699Z,74.90
2018-03-14T14:55:12.374Z,76.10
2018-03-14T14:57:40.910Z,76.10
2018-03-14T15:00:09.176Z,76.40
2018-03-14T15:02:38.437Z,76.70
2018-03-14T15:05:07.826Z,76.60
2018-03-14T15:07:36.121Z,77.50
2018-03-14T15:10:04.430Z,78.10
2018-03-14T15:12:33.781Z,78.30
2018-03-14T15:15:02.177Z,78.10
2018-03-14T15:17:30.538Z,77.90
2018-03-14T15:19:59.144Z,77.60
2018-03-14T15:22:27.420Z,77.70
2018-03-14T15:24:56.058Z,77.50
2018-03-14T15:27:24.385Z,77.30
2018-03-14T15:29:55.001Z,77.30
2018-03-14T15:32:24.089Z,77.30
2018-03-14T15:34:52.513Z,76.60
2018-03-14T15:37:20.811Z,76.60
2018-03-14T15:39:50.065Z,76.00
2018-03-14T15:42:21.006Z,76.30
2018-03-14T15:44:50.092Z,74.70
2018-03-14T15:47:18.369Z,73.60
2018-03-14T15:49:47.052Z,72.10
2018-03-14T15:52:15.349Z,70.60
2018-03-14T15:54:43.709Z,70.30
2018-03-14T15:57:12.600Z,70.70
2018-03-14T15:59:40.926Z,71.40
2018-03-14T16:02:09.247Z,70.50
2018-03-14T16:04:37.574Z,70.00
2018-03-14T16:07:07.918Z,69.40
2018-03-14T16:09:36.194Z,69.70
2018-03-14T16:12:04.721Z,70.00
2018-03-14T16:14:33.085Z,69.60
2018-03-14T16:17:01.351Z,70.00
2018-03-14T16:19:30.974Z,70.40
2018-03-14T16:21:59.334Z,71.50
2018-03-14T16:24:27.607Z,71.60
2018-03-14T16:26:57.203Z,71.20
2018-03-14T16:29:25.493Z,70.70
2018-03-14T16:31:54.631Z,70.00
2018-03-14T16:34:27.370Z,72.10
2018-03-14T16:36:55.656Z,72.00
2018-03-14T16:39:23.950Z,71.30
2018-03-14T16:41:52.288Z,72.20
2018-03-14T16:44:23.063Z,71.10
2018-03-14T16:46:51.351Z,72.00
2018-03-14T16:49:20.068Z,72.60
2018-03-14T16:51:48.331Z,72.40
2018-03-14T16:54:17.367Z,72.80
2018-03-14T16:56:49.129Z,72.70
2018-03-14T16:59:18.135Z,73.70
2018-03-14T17:01:46.414Z,72.70
2018-03-14T17:04:14.900Z,73.40
2018-03-14T17:06:43.199Z,73.60
2018-03-14T17:09:14.269Z,73.80
2018-03-14T17:11:44.555Z,74.50
2018-03-14T17:14:13.593Z,75.90
2018-03-14T17:16:41.924Z,75.30
2018-03-14T17:19:11.031Z,76.20
2018-03-14T17:21:39.391Z,76.20
2018-03-14T17:24:09.899Z,78.60
2018-03-14T17:26:38.386Z,78.20
2018-03-14T17:29:08.766Z,78.70
2018-03-14T17:31:37.065Z,79.40
2018-03-14T17:34:06.622Z,80.10
2018-03-14T17:36:35.782Z,81.30
2018-03-14T17:39:04.047Z,81.10
2018-03-14T17:41:32.436Z,81.60
2018-03-14T17:44:00.719Z,81.60
2018-03-14T17:46:29.345Z,81.70
2018-03-14T17:48:57.712Z,82.30
2018-03-14T17:51:25.971Z,82.00
2018-03-14T17:53:54.301Z,82.60
2018-03-14T17:56:22.590Z,82.60
2018-03-14T17:58:52.643Z,82.50
2018-03-14T18:01:20.901Z,81.70
2018-03-14T18:03:49.409Z,82.60
2018-03-14T18:06:17.686Z,81.10
2018-03-14T18:08:45.968Z,81.70
2018-03-14T18:11:16.071Z,81.90
2018-03-14T18:13:44.429Z,81.70
2018-03-14T18:16:12.759Z,82.10
2018-03-14T18:18:41.838Z,83.70
2018-03-14T18:21:10.174Z,83.60
2018-03-14T18:23:40.828Z,83.90
2018-03-14T18:26:09.233Z,83.10
2018-03-14T18:28:37.485Z,83.40
2018-03-14T18:31:06.258Z,84.10
2018-03-14T18:33:35.048Z,84.80
2018-03-14T18:36:03.371Z,84.50
2018-03-14T18:38:32.519Z,84.50
2018-03-14T18:41:00.866Z,84.40
2018-03-14T18:43:29.184Z,85.10
2018-03-14T18:45:57.469Z,83.70
2018-03-14T18:48:29.162Z,85.40
2018-03-14T18:50:58.221Z,85.30
2018-03-14T18:53:27.993Z,86.80
2018-03-14T18:55:56.288Z,86.80
2018-03-14T18:58:24.546Z,88.50
2018-03-14T19:00:53.664Z,89.00
2018-03-14T19:03:22.463Z,89.30
2018-03-14T19:05:50.764Z,89.70
2018-03-14T19:08:19.029Z,89.30
2018-03-14T19:10:47.800Z,89.90
2018-03-14T19:13:16.862Z,90.30
2018-03-14T19:15:45.146Z,90.40
2018-03-14T19:18:13.453Z,90.50
2018-03-14T19:20:41.753Z,90.90
2018-03-14T19:23:10.780Z,91.20
2018-03-14T19:25:41.037Z,91.10
2018-03-14T19:28:09.313Z,91.20
2018-03-14T19:30:37.578Z,91.20
2018-03-14T19:33:06.591Z,91.40
2018-03-14T19:35:36.386Z,91.70
2018-03-14T19:38:04.701Z,91.90
2018-03-14T19:40:35.340Z,91.50
2018-03-14T19:43:04.361Z,91.80
2018-03-14T19:45:33.380Z,92.00
2018-03-14T19:48:01.865Z,91.90
2018-03-14T19:50:34.385Z,92.00
2018-03-14T19:53:03.440Z,92.20
2018-03-14T19:55:31.714Z,92.10
2018-03-14T19:58:00.091Z,92.40
2018-03-14T20:00:29.538Z,92.40
2018-03-14T20:02:58.602Z,91.70
2018-03-14T20:05:28.390Z,90.90
2018-03-14T20:07:56.843Z,90.90
2018-03-14T20:10:25.141Z,91.50
2018-03-14T20:12:53.397Z,91.70
2018-03-14T20:15:23.359Z,91.90
2018-03-14T20:17:51.611Z,92.20
2018-03-14T20:20:19.873Z,92.20
2018-03-14T20:22:48.173Z,92.00
2018-03-14T20:25:16.433Z,92.10
2018-03-14T20:27:45.441Z,92.00
2018-03-14T20:30:14.035Z,92.10
2018-03-14T20:32:42.298Z,92.30
2018-03-14T20:35:12.386Z,92.50
2018-03-14T20:37:40.696Z,91.80
2018-03-14T20:40:09.047Z,92.20
2018-03-14T20:42:37.313Z,92.50
2018-03-14T20:45:05.951Z,92.40
2018-03-14T20:47:34.222Z,92.00
2018-03-14T20:50:02.638Z,91.20
2018-03-14T20:52:34.021Z,90.60
2018-03-14T20:55:02.297Z,90.60
2018-03-14T20:57:30.583Z,90.50
2018-03-14T20:59:58.972Z,90.90
2018-03-14T21:02:27.249Z,90.50
2018-03-14T21:04:55.512Z,90.60
2018-03-14T21:07:24.024Z,90.50
2018-03-14T21:09:52.372Z,90.60
2018-03-14T21:12:20.843Z,90.70
2018-03-14T21:14:50.777Z,90.20
2018-03-14T21:17:20.722Z,90.30
2018-03-14T21:19:50.574Z,89.80
2018-03-14T21:22:18.883Z,89.80
2018-03-14T21:24:49.403Z,89.80
2018-03-14T21:27:19.244Z,89.80
2018-03-14T21:29:49.686Z,89.80
2018-03-14T21:32:17.942Z,89.80
2018-03-14T21:34:46.968Z,90.20
2018-03-14T21:37:16.743Z,89.90
2018-03-14T21:39:45.042Z,89.90
2018-03-14T21:42:13.336Z,89.70
2018-03-14T21:44:42.412Z,90.00
2018-03-14T21:47:10.701Z,90.00
2018-03-14T21:49:38.974Z,90.00
2018-03-14T21:52:09.477Z,90.10
2018-03-14T21:54:40.095Z,90.50
2018-03-14T21:57:17.449Z,90.50
2018-03-14T21:59:45.785Z,90.40
2018-03-14T22:02:14.010Z,90.50
2018-03-14T22:04:42.321Z,90.40
2018-03-14T22:07:10.619Z,90.50
2018-03-14T22:09:38.877Z,90.40
2018-03-14T22:12:08.677Z,90.60
2018-03-14T22:14:38.608Z,90.50
2018-03-14T22:17:07.369Z,90.40
2018-03-14T22:19:35.893Z,90.50
2018-03-14T22:22:04.155Z,90.50
2018-03-14T22:24:32.438Z,90.60
2018-03-14T22:27:01.628Z,90.60
2018-03-14T22:29:30.674Z,90.70
2018-03-14T22:31:58.945Z,90.70
2018-03-14T22:34:27.484Z,90.90
2018-03-14T22:36:55.784Z,91.00
2018-03-14T22:39:27.452Z,91.00
2018-03-14T22:41:55.778Z,91.10
2018-03-14T22:44:24.046Z,91.20
2018-03-14T22:46:52.316Z,91.20
2018-03-14T22:49:20.821Z,91.30
2018-03-14T22:51:49.816Z,91.30
2018-03-14T22:54:19.574Z,91.20
2018-03-14T22:56:47.883Z,91.30
2018-03-14T22:59:16.160Z,91.40
2018-03-14T23:01:44.418Z,91.40
2018-03-14T23:04:12.930Z,91.40
2018-03-14T23:06:41.688Z,91.50
2018-03-14T23:09:09.941Z,91.50
2018-03-14T23:11:39.097Z,91.60
2018-03-14T23:14:07.416Z,91.60
2018-03-14T23:16:37.181Z,91.80
2018-03-14T23:19:05.480Z,91.80
2018-03-14T23:21:33.747Z,91.90
2018-03-14T23:24:02.010Z,91.90
2018-03-14T23:26:30.603Z,92.10
2018-03-14T23:29:00.442Z,92.20
2018-03-14T23:31:30.503Z,92.20
2018-03-14T23:33:58.798Z,92.20
2018-03-14T23:36:27.105Z,92.20
2018-03-14T23:38:55.365Z,92.40
2018-03-14T23:41:28.253Z,92.30
2018-03-14T23:43:57.274Z,92.30
2018-03-14T23:46:26.293Z,92.20
2018-03-14T23:48:54.615Z,92.20
2018-03-14T23:51:22.883Z,92.20
2018-03-14T23:53:51.924Z,92.10
2018-03-14T23:56:22.639Z,92.10
2018-03-14T23:58:51.753Z,92.10
